sensor_id;sensor_type;location;lat;lon;timestamp;P1;durP1;ratioP1;P2;durP2;ratioP2
49972;SDS011;65693;49.798;10.968;2023-01-05T00:01:40;2.33;;;1.20;;
49972;SDS011;65693;49.798;10.968;2023-01-05T00:04:06;2.05;;;1.20;;
49972;SDS011;65693;49.798;10.968;2023-01-05T00:06:34;1.88;;;1.20;;
49972;SDS011;65693;49.798;10.968;2023-01-05T00:09:02;1.75;;;1.20;;
49972;SDS011;65693;49.798;10.968;2023-01-05T00:11:29;2.17;;;1.25;;
49972;SDS011;65693;49.798;10.968;2023-01-05T00:14:14;2.13;;;1.10;;
49972;SDS011;65693;49.798;10.968;2023-01-05T00:16:59;2.10;;;1.20;;
49972;SDS011;65693;49.798;10.968;2023-01-05T00:19:43;1.73;;;1.15;;
49972;SDS011;65693;49.798;10.968;2023-01-05T00:22:29;1.23;;;0.98;;
49972;SDS011;65693;49.798;10.968;2023-01-05T00:24:57;1.10;;;1.00;;
49972;SDS011;65693;49.798;10.968;2023-01-05T00:27:23;1.65;;;1.13;;
49972;SDS011;65693;49.798;10.968;2023-01-05T00:29:50;2.08;;;1.10;;
49972;SDS011;65693;49.798;10.968;2023-01-05T00:32:16;1.98;;;1.15;;
49972;SDS011;65693;49.798;10.968;2023-01-05T00:34:43;1.92;;;1.13;;
49972;SDS011;65693;49.798;10.968;2023-01-05T00:37:10;1.88;;;1.10;;
49972;SDS011;65693;49.798;10.968;2023-01-05T00:39:38;1.77;;;1.20;;
49972;SDS011;65693;49.798;10.968;2023-01-05T00:42:04;2.13;;;1.30;;
49972;SDS011;65693;49.798;10.968;2023-01-05T00:44:31;1.92;;;1.20;;
49972;SDS011;65693;49.798;10.968;2023-01-05T00:46:57;2.13;;;1.20;;
49972;SDS011;65693;49.798;10.968;2023-01-05T00:49:23;1.88;;;1.35;;
49972;SDS011;65693;49.798;10.968;2023-01-05T00:51:50;1.75;;;1.10;;
49972;SDS011;65693;49.798;10.968;2023-01-05T00:54:16;1.80;;;1.23;;
49972;SDS011;65693;49.798;10.968;2023-01-05T00:56:44;1.73;;;1.00;;
49972;SDS011;65693;49.798;10.968;2023-01-05T00:59:13;1.95;;;1.10;;
49972;SDS011;65693;49.798;10.968;2023-01-05T01:01:39;1.58;;;1.00;;
49972;SDS011;65693;49.798;10.968;2023-01-05T01:04:06;1.95;;;1.00;;
49972;SDS011;65693;49.798;10.968;2023-01-05T01:06:32;1.90;;;1.17;;
49972;SDS011;65693;49.798;10.968;2023-01-05T01:08:59;2.10;;;1.20;;
49972;SDS011;65693;49.798;10.968;2023-01-05T01:11:25;1.40;;;1.02;;
49972;SDS011;65693;49.798;10.968;2023-01-05T01:13:53;2.85;;;1.38;;
49972;SDS011;65693;49.798;10.968;2023-01-05T01:16:19;2.03;;;1.27;;
49972;SDS011;65693;49.798;10.968;2023-01-05T01:18:46;2.33;;;1.40;;
49972;SDS011;65693;49.798;10.968;2023-01-05T01:21:12;2.05;;;1.17;;
49972;SDS011;65693;49.798;10.968;2023-01-05T01:23:39;2.40;;;1.48;;
49972;SDS011;65693;49.798;10.968;2023-01-05T01:26:05;1.60;;;1.13;;
49972;SDS011;65693;49.798;10.968;2023-01-05T01:28:33;1.67;;;1.08;;
49972;SDS011;65693;49.798;10.968;2023-01-05T01:31:01;2.40;;;1.38;;
49972;SDS011;65693;49.798;10.968;2023-01-05T01:33:30;1.77;;;1.10;;
49972;SDS011;65693;49.798;10.968;2023-01-05T01:35:56;1.90;;;1.15;;
49972;SDS011;65693;49.798;10.968;2023-01-05T01:38:24;2.33;;;1.33;;
49972;SDS011;65693;49.798;10.968;2023-01-05T01:40:50;1.23;;;1.00;;
49972;SDS011;65693;49.798;10.968;2023-01-05T01:43:17;1.55;;;1.27;;
49972;SDS011;65693;49.798;10.968;2023-01-05T01:46:04;3.08;;;1.25;;
49972;SDS011;65693;49.798;10.968;2023-01-05T01:48:31;2.20;;;1.20;;
49972;SDS011;65693;49.798;10.968;2023-01-05T01:50:59;1.73;;;1.20;;
49972;SDS011;65693;49.798;10.968;2023-01-05T01:53:30;2.42;;;1.30;;
49972;SDS011;65693;49.798;10.968;2023-01-05T01:56:01;2.25;;;1.30;;
49972;SDS011;65693;49.798;10.968;2023-01-05T01:58:30;1.60;;;1.00;;
49972;SDS011;65693;49.798;10.968;2023-01-05T02:00:57;1.65;;;1.00;;
49972;SDS011;65693;49.798;10.968;2023-01-05T02:03:26;2.00;;;1.10;;
49972;SDS011;65693;49.798;10.968;2023-01-05T02:05:53;2.25;;;1.00;;
49972;SDS011;65693;49.798;10.968;2023-01-05T02:08:21;2.47;;;1.20;;
49972;SDS011;65693;49.798;10.968;2023-01-05T02:10:56;2.17;;;1.20;;
49972;SDS011;65693;49.798;10.968;2023-01-05T02:13:42;1.60;;;1.08;;
49972;SDS011;65693;49.798;10.968;2023-01-05T02:16:23;1.80;;;1.20;;
49972;SDS011;65693;49.798;10.968;2023-01-05T02:19:12;1.15;;;0.90;;
49972;SDS011;65693;49.798;10.968;2023-01-05T02:22:05;1.50;;;1.05;;
49972;SDS011;65693;49.798;10.968;2023-01-05T02:24:55;1.20;;;0.93;;
49972;SDS011;65693;49.798;10.968;2023-01-05T02:27:47;1.80;;;1.10;;
49972;SDS011;65693;49.798;10.968;2023-01-05T02:30:47;1.45;;;0.90;;
49972;SDS011;65693;49.798;10.968;2023-01-05T02:33:37;1.30;;;0.90;;
49972;SDS011;65693;49.798;10.968;2023-01-05T02:36:22;1.95;;;1.17;;
49972;SDS011;65693;49.798;10.968;2023-01-05T02:38:52;1.42;;;1.10;;
49972;SDS011;65693;49.798;10.968;2023-01-05T02:41:28;1.70;;;0.93;;
49972;SDS011;65693;49.798;10.968;2023-01-05T02:43:58;1.50;;;1.15;;
49972;SDS011;65693;49.798;10.968;2023-01-05T02:46:27;1.85;;;1.23;;
49972;SDS011;65693;49.798;10.968;2023-01-05T02:48:53;2.08;;;1.10;;
49972;SDS011;65693;49.798;10.968;2023-01-05T02:51:23;1.73;;;1.23;;
49972;SDS011;65693;49.798;10.968;2023-01-05T02:53:57;1.75;;;1.10;;
49972;SDS011;65693;49.798;10.968;2023-01-05T02:56:27;1.23;;;1.00;;
49972;SDS011;65693;49.798;10.968;2023-01-05T02:59:00;1.52;;;0.95;;
49972;SDS011;65693;49.798;10.968;2023-01-05T03:01:34;1.88;;;1.10;;
49972;SDS011;65693;49.798;10.968;2023-01-05T03:04:04;1.65;;;1.20;;
49972;SDS011;65693;49.798;10.968;2023-01-05T03:06:34;1.90;;;1.25;;
49972;SDS011;65693;49.798;10.968;2023-01-05T03:09:11;1.63;;;0.90;;
49972;SDS011;65693;49.798;10.968;2023-01-05T03:11:41;1.40;;;0.90;;
49972;SDS011;65693;49.798;10.968;2023-01-05T03:14:30;1.90;;;1.00;;
49972;SDS011;65693;49.798;10.968;2023-01-05T03:17:01;1.50;;;1.00;;
49972;SDS011;65693;49.798;10.968;2023-01-05T03:19:33;1.67;;;1.10;;
49972;SDS011;65693;49.798;10.968;2023-01-05T03:22:01;1.52;;;0.90;;
49972;SDS011;65693;49.798;10.968;2023-01-05T03:24:47;1.55;;;1.02;;
49972;SDS011;65693;49.798;10.968;2023-01-05T03:27:32;1.67;;;1.10;;
49972;SDS011;65693;49.798;10.968;2023-01-05T03:30:16;1.80;;;1.10;;
49972;SDS011;65693;49.798;10.968;2023-01-05T03:33:04;1.48;;;1.10;;
49972;SDS011;65693;49.798;10.968;2023-01-05T03:35:53;1.70;;;1.23;;
49972;SDS011;65693;49.798;10.968;2023-01-05T03:38:23;1.83;;;1.15;;
49972;SDS011;65693;49.798;10.968;2023-01-05T03:40:54;1.25;;;0.93;;
49972;SDS011;65693;49.798;10.968;2023-01-05T03:43:24;1.98;;;1.23;;
49972;SDS011;65693;49.798;10.968;2023-01-05T03:45:52;1.88;;;1.10;;
49972;SDS011;65693;49.798;10.968;2023-01-05T03:48:21;1.55;;;1.00;;
49972;SDS011;65693;49.798;10.968;2023-01-05T03:50:50;1.90;;;1.10;;
49972;SDS011;65693;49.798;10.968;2023-01-05T03:53:17;1.30;;;0.93;;
49972;SDS011;65693;49.798;10.968;2023-01-05T03:55:43;1.42;;;0.85;;
49972;SDS011;65693;49.798;10.968;2023-01-05T03:58:10;1.33;;;0.88;;
49972;SDS011;65693;49.798;10.968;2023-01-05T04:00:36;1.25;;;1.00;;
49972;SDS011;65693;49.798;10.968;2023-01-05T04:03:02;1.60;;;1.00;;
49972;SDS011;65693;49.798;10.968;2023-01-05T04:05:30;1.50;;;1.00;;
49972;SDS011;65693;49.798;10.968;2023-01-05T04:07:57;1.45;;;0.85;;
49972;SDS011;65693;49.798;10.968;2023-01-05T04:10:23;1.80;;;1.27;;
49972;SDS011;65693;49.798;10.968;2023-01-05T04:12:50;1.15;;;0.90;;
49972;SDS011;65693;49.798;10.968;2023-01-05T04:15:16;1.40;;;0.90;;
49972;SDS011;65693;49.798;10.968;2023-01-05T04:17:43;1.73;;;1.00;;
49972;SDS011;65693;49.798;10.968;2023-01-05T04:20:09;1.70;;;1.10;;
49972;SDS011;65693;49.798;10.968;2023-01-05T04:22:38;2.25;;;1.13;;
49972;SDS011;65693;49.798;10.968;2023-01-05T04:25:05;1.70;;;0.90;;
49972;SDS011;65693;49.798;10.968;2023-01-05T04:27:32;1.77;;;1.05;;
49972;SDS011;65693;49.798;10.968;2023-01-05T04:29:59;1.60;;;1.00;;
49972;SDS011;65693;49.798;10.968;2023-01-05T04:32:25;1.30;;;0.90;;
49972;SDS011;65693;49.798;10.968;2023-01-05T04:34:52;1.30;;;0.90;;
49972;SDS011;65693;49.798;10.968;2023-01-05T04:37:18;2.17;;;1.10;;
49972;SDS011;65693;49.798;10.968;2023-01-05T04:39:46;1.65;;;1.20;;
49972;SDS011;65693;49.798;10.968;2023-01-05T04:42:12;1.17;;;0.88;;
49972;SDS011;65693;49.798;10.968;2023-01-05T04:44:39;1.55;;;1.10;;
49972;SDS011;65693;49.798;10.968;2023-01-05T04:47:05;1.60;;;0.95;;
49972;SDS011;65693;49.798;10.968;2023-01-05T04:49:31;1.63;;;1.10;;
49972;SDS011;65693;49.798;10.968;2023-01-05T04:51:58;1.95;;;0.90;;
49972;SDS011;65693;49.798;10.968;2023-01-05T04:54:24;1.50;;;0.98;;
49972;SDS011;65693;49.798;10.968;2023-01-05T04:56:52;2.00;;;1.33;;
49972;SDS011;65693;49.798;10.968;2023-01-05T04:59:19;1.75;;;1.00;;
49972;SDS011;65693;49.798;10.968;2023-01-05T05:01:45;1.67;;;0.95;;
49972;SDS011;65693;49.798;10.968;2023-01-05T05:04:11;1.38;;;0.93;;
49972;SDS011;65693;49.798;10.968;2023-01-05T05:06:38;1.35;;;0.88;;
49972;SDS011;65693;49.798;10.968;2023-01-05T05:09:05;1.48;;;0.85;;
49972;SDS011;65693;49.798;10.968;2023-01-05T05:11:31;1.35;;;0.95;;
49972;SDS011;65693;49.798;10.968;2023-01-05T05:13:59;2.17;;;0.98;;
49972;SDS011;65693;49.798;10.968;2023-01-05T05:16:26;1.48;;;0.95;;
49972;SDS011;65693;49.798;10.968;2023-01-05T05:18:52;1.63;;;1.08;;
49972;SDS011;65693;49.798;10.968;2023-01-05T05:21:18;1.95;;;1.08;;
49972;SDS011;65693;49.798;10.968;2023-01-05T05:23:45;1.27;;;0.88;;
49972;SDS011;65693;49.798;10.968;2023-01-05T05:26:11;1.90;;;1.00;;
49972;SDS011;65693;49.798;10.968;2023-01-05T05:28:38;1.30;;;0.95;;
49972;SDS011;65693;49.798;10.968;2023-01-05T05:31:06;1.50;;;1.00;;
49972;SDS011;65693;49.798;10.968;2023-01-05T05:33:32;1.35;;;1.10;;
49972;SDS011;65693;49.798;10.968;2023-01-05T05:35:58;2.10;;;1.10;;
49972;SDS011;65693;49.798;10.968;2023-01-05T05:38:25;1.67;;;0.80;;
49972;SDS011;65693;49.798;10.968;2023-01-05T05:40:51;1.25;;;0.88;;
49972;SDS011;65693;49.798;10.968;2023-01-05T05:43:18;1.38;;;0.90;;
49972;SDS011;65693;49.798;10.968;2023-01-05T05:45:44;1.30;;;0.90;;
49972;SDS011;65693;49.798;10.968;2023-01-05T05:48:12;1.63;;;1.00;;
49972;SDS011;65693;49.798;10.968;2023-01-05T05:50:38;1.50;;;1.05;;
49972;SDS011;65693;49.798;10.968;2023-01-05T05:53:05;1.58;;;1.20;;
49972;SDS011;65693;49.798;10.968;2023-01-05T05:55:31;1.27;;;0.90;;
49972;SDS011;65693;49.798;10.968;2023-01-05T05:57:58;1.42;;;0.90;;
49972;SDS011;65693;49.798;10.968;2023-01-05T06:00:24;0.98;;;0.75;;
49972;SDS011;65693;49.798;10.968;2023-01-05T06:02:51;2.05;;;1.00;;
49972;SDS011;65693;49.798;10.968;2023-01-05T06:05:19;1.58;;;1.02;;
49972;SDS011;65693;49.798;10.968;2023-01-05T06:07:45;2.28;;;1.20;;
49972;SDS011;65693;49.798;10.968;2023-01-05T06:10:12;1.55;;;0.93;;
49972;SDS011;65693;49.798;10.968;2023-01-05T06:12:38;2.17;;;1.00;;
49972;SDS011;65693;49.798;10.968;2023-01-05T06:15:05;1.25;;;0.93;;
49972;SDS011;65693;49.798;10.968;2023-01-05T06:17:32;1.48;;;0.80;;
49972;SDS011;65693;49.798;10.968;2023-01-05T06:19:58;1.10;;;0.90;;
49972;SDS011;65693;49.798;10.968;2023-01-05T06:22:26;1.45;;;0.93;;
49972;SDS011;65693;49.798;10.968;2023-01-05T06:24:53;2.70;;;1.00;;
49972;SDS011;65693;49.798;10.968;2023-01-05T06:27:20;0.85;;;0.77;;
49972;SDS011;65693;49.798;10.968;2023-01-05T06:29:46;1.38;;;1.00;;
49972;SDS011;65693;49.798;10.968;2023-01-05T06:32:12;1.55;;;0.90;;
49972;SDS011;65693;49.798;10.968;2023-01-05T06:34:39;1.60;;;0.90;;
49972;SDS011;65693;49.798;10.968;2023-01-05T06:37:05;2.00;;;1.00;;
49972;SDS011;65693;49.798;10.968;2023-01-05T06:39:33;1.45;;;0.95;;
49972;SDS011;65693;49.798;10.968;2023-01-05T06:41:59;1.33;;;0.88;;
49972;SDS011;65693;49.798;10.968;2023-01-05T06:44:26;2.30;;;1.08;;
49972;SDS011;65693;49.798;10.968;2023-01-05T06:46:52;3.05;;;1.30;;
49972;SDS011;65693;49.798;10.968;2023-01-05T06:49:19;2.38;;;1.20;;
49972;SDS011;65693;49.798;10.968;2023-01-05T06:51:45;2.42;;;1.10;;
49972;SDS011;65693;49.798;10.968;2023-01-05T06:54:12;1.30;;;0.90;;
49972;SDS011;65693;49.798;10.968;2023-01-05T06:56:40;1.10;;;0.90;;
49972;SDS011;65693;49.798;10.968;2023-01-05T06:59:06;1.23;;;0.85;;
49972;SDS011;65693;49.798;10.968;2023-01-05T07:01:33;3.00;;;1.30;;
49972;SDS011;65693;49.798;10.968;2023-01-05T07:03:59;2.20;;;1.13;;
49972;SDS011;65693;49.798;10.968;2023-01-05T07:06:25;2.38;;;1.00;;
49972;SDS011;65693;49.798;10.968;2023-01-05T07:08:52;1.67;;;1.00;;
49972;SDS011;65693;49.798;10.968;2023-01-05T07:11:18;1.67;;;0.98;;
49972;SDS011;65693;49.798;10.968;2023-01-05T07:13:47;2.08;;;1.10;;
49972;SDS011;65693;49.798;10.968;2023-01-05T07:16:14;1.50;;;1.00;;
49972;SDS011;65693;49.798;10.968;2023-01-05T07:18:41;2.38;;;1.10;;
49972;SDS011;65693;49.798;10.968;2023-01-05T07:21:07;1.13;;;0.85;;
49972;SDS011;65693;49.798;10.968;2023-01-05T07:23:33;1.63;;;0.82;;
49972;SDS011;65693;49.798;10.968;2023-01-05T07:26:01;2.33;;;1.00;;
49972;SDS011;65693;49.798;10.968;2023-01-05T07:28:28;1.45;;;0.90;;
49972;SDS011;65693;49.798;10.968;2023-01-05T07:30:56;2.28;;;1.17;;
49972;SDS011;65693;49.798;10.968;2023-01-05T07:33:22;1.90;;;1.00;;
49972;SDS011;65693;49.798;10.968;2023-01-05T07:35:49;1.58;;;0.77;;
49972;SDS011;65693;49.798;10.968;2023-01-05T07:38:15;2.05;;;0.90;;
49972;SDS011;65693;49.798;10.968;2023-01-05T07:40:42;1.70;;;1.10;;
49972;SDS011;65693;49.798;10.968;2023-01-05T07:43:08;2.22;;;1.08;;
49972;SDS011;65693;49.798;10.968;2023-01-05T07:45:35;1.58;;;1.05;;
49972;SDS011;65693;49.798;10.968;2023-01-05T07:48:02;3.17;;;1.10;;
49972;SDS011;65693;49.798;10.968;2023-01-05T07:50:29;2.70;;;0.95;;
49972;SDS011;65693;49.798;10.968;2023-01-05T07:52:57;2.30;;;1.10;;
49972;SDS011;65693;49.798;10.968;2023-01-05T07:55:23;1.80;;;1.08;;
49972;SDS011;65693;49.798;10.968;2023-01-05T07:57:50;2.25;;;1.00;;
49972;SDS011;65693;49.798;10.968;2023-01-05T08:00:16;1.65;;;0.95;;
49972;SDS011;65693;49.798;10.968;2023-01-05T08:02:43;1.88;;;0.95;;
49972;SDS011;65693;49.798;10.968;2023-01-05T08:05:11;1.45;;;0.90;;
49972;SDS011;65693;49.798;10.968;2023-01-05T08:07:37;2.40;;;1.25;;
49972;SDS011;65693;49.798;10.968;2023-01-05T08:10:04;2.53;;;1.10;;
49972;SDS011;65693;49.798;10.968;2023-01-05T08:12:49;1.08;;;0.88;;
49972;SDS011;65693;49.798;10.968;2023-01-05T08:15:33;3.47;;;1.23;;
49972;SDS011;65693;49.798;10.968;2023-01-05T08:18:00;2.38;;;1.10;;
49972;SDS011;65693;49.798;10.968;2023-01-05T08:20:27;2.83;;;1.00;;
49972;SDS011;65693;49.798;10.968;2023-01-05T08:22:54;4.28;;;1.33;;
49972;SDS011;65693;49.798;10.968;2023-01-05T08:25:20;3.03;;;1.13;;
49972;SDS011;65693;49.798;10.968;2023-01-05T08:27:47;3.35;;;1.15;;
49972;SDS011;65693;49.798;10.968;2023-01-05T08:30:13;2.40;;;1.13;;
49972;SDS011;65693;49.798;10.968;2023-01-05T08:32:40;2.20;;;1.08;;
49972;SDS011;65693;49.798;10.968;2023-01-05T08:35:07;2.40;;;1.42;;
49972;SDS011;65693;49.798;10.968;2023-01-05T08:37:36;2.45;;;1.00;;
49972;SDS011;65693;49.798;10.968;2023-01-05T08:40:04;1.17;;;1.00;;
49972;SDS011;65693;49.798;10.968;2023-01-05T08:42:32;3.63;;;1.13;;
49972;SDS011;65693;49.798;10.968;2023-01-05T08:44:58;1.80;;;0.98;;
49972;SDS011;65693;49.798;10.968;2023-01-05T08:47:24;3.22;;;1.20;;
49972;SDS011;65693;49.798;10.968;2023-01-05T08:49:51;2.75;;;1.02;;
49972;SDS011;65693;49.798;10.968;2023-01-05T08:52:17;2.53;;;1.13;;
49972;SDS011;65693;49.798;10.968;2023-01-05T08:54:45;1.98;;;1.10;;
49972;SDS011;65693;49.798;10.968;2023-01-05T08:57:11;2.25;;;1.00;;
49972;SDS011;65693;49.798;10.968;2023-01-05T08:59:38;3.03;;;1.10;;
49972;SDS011;65693;49.798;10.968;2023-01-05T09:02:05;5.88;;;1.23;;
49972;SDS011;65693;49.798;10.968;2023-01-05T09:04:33;4.80;;;1.52;;
49972;SDS011;65693;49.798;10.968;2023-01-05T09:06:59;10.25;;;1.70;;
49972;SDS011;65693;49.798;10.968;2023-01-05T09:09:26;3.00;;;1.10;;
49972;SDS011;65693;49.798;10.968;2023-01-05T09:11:54;3.20;;;1.20;;
49972;SDS011;65693;49.798;10.968;2023-01-05T09:14:20;6.60;;;1.58;;
49972;SDS011;65693;49.798;10.968;2023-01-05T09:16:47;3.42;;;1.10;;
49972;SDS011;65693;49.798;10.968;2023-01-05T09:19:13;5.68;;;1.23;;
49972;SDS011;65693;49.798;10.968;2023-01-05T09:21:40;4.60;;;1.35;;
49972;SDS011;65693;49.798;10.968;2023-01-05T09:24:06;4.38;;;1.27;;
49972;SDS011;65693;49.798;10.968;2023-01-05T09:26:36;5.55;;;1.52;;
49972;SDS011;65693;49.798;10.968;2023-01-05T09:29:04;4.00;;;1.50;;
49972;SDS011;65693;49.798;10.968;2023-01-05T09:31:30;3.05;;;1.40;;
49972;SDS011;65693;49.798;10.968;2023-01-05T09:33:57;4.10;;;1.20;;
49972;SDS011;65693;49.798;10.968;2023-01-05T09:36:23;3.42;;;1.20;;
49972;SDS011;65693;49.798;10.968;2023-01-05T09:38:50;3.50;;;1.30;;
49972;SDS011;65693;49.798;10.968;2023-01-05T09:41:19;2.80;;;1.00;;
49972;SDS011;65693;49.798;10.968;2023-01-05T09:43:49;5.45;;;1.40;;
49972;SDS011;65693;49.798;10.968;2023-01-05T09:46:20;2.80;;;1.23;;
49972;SDS011;65693;49.798;10.968;2023-01-05T09:48:49;5.38;;;1.17;;
49972;SDS011;65693;49.798;10.968;2023-01-05T09:51:20;2.70;;;1.05;;
49972;SDS011;65693;49.798;10.968;2023-01-05T09:53:47;4.07;;;1.35;;
49972;SDS011;65693;49.798;10.968;2023-01-05T09:56:17;4.53;;;1.35;;
49972;SDS011;65693;49.798;10.968;2023-01-05T09:58:51;6.22;;;1.27;;
49972;SDS011;65693;49.798;10.968;2023-01-05T10:01:28;4.80;;;1.35;;
49972;SDS011;65693;49.798;10.968;2023-01-05T10:03:58;4.75;;;1.33;;
49972;SDS011;65693;49.798;10.968;2023-01-05T10:06:29;4.40;;;1.17;;
49972;SDS011;65693;49.798;10.968;2023-01-05T10:08:59;4.78;;;1.20;;
49972;SDS011;65693;49.798;10.968;2023-01-05T10:11:29;3.15;;;1.20;;
49972;SDS011;65693;49.798;10.968;2023-01-05T10:14:21;2.35;;;1.20;;
49972;SDS011;65693;49.798;10.968;2023-01-05T10:16:55;3.13;;;1.02;;
49972;SDS011;65693;49.798;10.968;2023-01-05T10:19:21;2.42;;;1.10;;
49972;SDS011;65693;49.798;10.968;2023-01-05T10:21:50;5.07;;;1.40;;
49972;SDS011;65693;49.798;10.968;2023-01-05T10:24:26;3.22;;;1.00;;
49972;SDS011;65693;49.798;10.968;2023-01-05T10:27:05;3.80;;;1.40;;
49972;SDS011;65693;49.798;10.968;2023-01-05T10:29:38;2.45;;;1.02;;
49972;SDS011;65693;49.798;10.968;2023-01-05T10:32:14;3.50;;;1.30;;
49972;SDS011;65693;49.798;10.968;2023-01-05T10:34:53;2.47;;;1.10;;
49972;SDS011;65693;49.798;10.968;2023-01-05T10:37:26;2.90;;;1.10;;
49972;SDS011;65693;49.798;10.968;2023-01-05T10:40:08;3.03;;;1.17;;
49972;SDS011;65693;49.798;10.968;2023-01-05T10:42:48;3.95;;;1.35;;
49972;SDS011;65693;49.798;10.968;2023-01-05T10:45:24;3.70;;;1.13;;
49972;SDS011;65693;49.798;10.968;2023-01-05T10:47:55;4.00;;;1.40;;
49972;SDS011;65693;49.798;10.968;2023-01-05T10:53:08;3.58;;;1.02;;
49972;SDS011;65693;49.798;10.968;2023-01-05T10:55:41;3.13;;;1.17;;
49972;SDS011;65693;49.798;10.968;2023-01-05T10:58:24;4.85;;;1.42;;
49972;SDS011;65693;49.798;10.968;2023-01-05T11:00:53;2.67;;;1.20;;
49972;SDS011;65693;49.798;10.968;2023-01-05T11:03:24;3.47;;;1.10;;
49972;SDS011;65693;49.798;10.968;2023-01-05T11:05:55;4.93;;;1.38;;
49972;SDS011;65693;49.798;10.968;2023-01-05T11:08:24;2.83;;;1.15;;
49972;SDS011;65693;49.798;10.968;2023-01-05T11:10:54;2.90;;;1.25;;
49972;SDS011;65693;49.798;10.968;2023-01-05T11:13:26;3.47;;;1.33;;
49972;SDS011;65693;49.798;10.968;2023-01-05T11:15:56;4.45;;;1.48;;
49972;SDS011;65693;49.798;10.968;2023-01-05T11:18:31;4.13;;;1.10;;
49972;SDS011;65693;49.798;10.968;2023-01-05T11:21:04;2.95;;;1.50;;
49972;SDS011;65693;49.798;10.968;2023-01-05T11:23:36;2.50;;;1.00;;
49972;SDS011;65693;49.798;10.968;2023-01-05T11:26:11;4.72;;;1.42;;
49972;SDS011;65693;49.798;10.968;2023-01-05T11:28:55;4.82;;;1.90;;
49972;SDS011;65693;49.798;10.968;2023-01-05T11:31:24;4.18;;;1.30;;
49972;SDS011;65693;49.798;10.968;2023-01-05T11:33:55;3.90;;;1.05;;
49972;SDS011;65693;49.798;10.968;2023-01-05T11:36:23;2.65;;;1.10;;
49972;SDS011;65693;49.798;10.968;2023-01-05T11:38:50;2.55;;;1.10;;
49972;SDS011;65693;49.798;10.968;2023-01-05T11:41:20;2.97;;;1.13;;
49972;SDS011;65693;49.798;10.968;2023-01-05T11:43:47;4.10;;;1.75;;
49972;SDS011;65693;49.798;10.968;2023-01-05T11:46:15;4.20;;;1.20;;
49972;SDS011;65693;49.798;10.968;2023-01-05T11:48:46;3.92;;;1.40;;
49972;SDS011;65693;49.798;10.968;2023-01-05T11:54:00;3.53;;;1.30;;
49972;SDS011;65693;49.798;10.968;2023-01-05T11:56:27;3.25;;;1.42;;
49972;SDS011;65693;49.798;10.968;2023-01-05T11:58:54;4.35;;;1.23;;
49972;SDS011;65693;49.798;10.968;2023-01-05T12:04:35;3.78;;;1.25;;
49972;SDS011;65693;49.798;10.968;2023-01-05T12:07:25;4.25;;;1.10;;
49972;SDS011;65693;49.798;10.968;2023-01-05T12:09:58;5.13;;;1.85;;
49972;SDS011;65693;49.798;10.968;2023-01-05T12:12:39;4.13;;;1.20;;
49972;SDS011;65693;49.798;10.968;2023-01-05T12:18:17;4.50;;;1.33;;
49972;SDS011;65693;49.798;10.968;2023-01-05T12:20:54;4.43;;;1.40;;
49972;SDS011;65693;49.798;10.968;2023-01-05T12:23:26;4.90;;;1.38;;
49972;SDS011;65693;49.798;10.968;2023-01-05T12:26:10;4.03;;;1.38;;
49972;SDS011;65693;49.798;10.968;2023-01-05T12:31:49;3.63;;;1.20;;
49972;SDS011;65693;49.798;10.968;2023-01-05T12:34:37;2.30;;;1.13;;
49972;SDS011;65693;49.798;10.968;2023-01-05T12:37:24;2.47;;;0.93;;
49972;SDS011;65693;49.798;10.968;2023-01-05T12:40:09;4.63;;;1.30;;
49972;SDS011;65693;49.798;10.968;2023-01-05T12:42:50;4.43;;;1.50;;
49972;SDS011;65693;49.798;10.968;2023-01-05T12:48:22;3.63;;;0.98;;
49972;SDS011;65693;49.798;10.968;2023-01-05T12:50:55;3.50;;;1.23;;
49972;SDS011;65693;49.798;10.968;2023-01-05T12:53:31;3.97;;;1.30;;
49972;SDS011;65693;49.798;10.968;2023-01-05T12:56:11;6.38;;;1.65;;
49972;SDS011;65693;49.798;10.968;2023-01-05T12:58:45;3.85;;;1.30;;
49972;SDS011;65693;49.798;10.968;2023-01-05T13:01:18;3.55;;;1.40;;
49972;SDS011;65693;49.798;10.968;2023-01-05T13:03:51;4.75;;;1.27;;
49972;SDS011;65693;49.798;10.968;2023-01-05T13:06:22;3.95;;;1.30;;
49972;SDS011;65693;49.798;10.968;2023-01-05T13:08:50;3.70;;;1.20;;
49972;SDS011;65693;49.798;10.968;2023-01-05T13:11:23;4.82;;;1.33;;
49972;SDS011;65693;49.798;10.968;2023-01-05T13:13:53;4.93;;;1.20;;
49972;SDS011;65693;49.798;10.968;2023-01-05T13:16:23;4.72;;;1.48;;
49972;SDS011;65693;49.798;10.968;2023-01-05T13:18:54;5.03;;;1.30;;
49972;SDS011;65693;49.798;10.968;2023-01-05T13:21:26;3.75;;;1.20;;
49972;SDS011;65693;49.798;10.968;2023-01-05T13:23:56;3.15;;;1.05;;
49972;SDS011;65693;49.798;10.968;2023-01-05T13:26:29;4.95;;;1.30;;
49972;SDS011;65693;49.798;10.968;2023-01-05T13:28:56;5.60;;;1.58;;
49972;SDS011;65693;49.798;10.968;2023-01-05T13:31:31;4.47;;;1.23;;
49972;SDS011;65693;49.798;10.968;2023-01-05T13:34:19;3.85;;;1.35;;
49972;SDS011;65693;49.798;10.968;2023-01-05T13:37:17;4.57;;;1.20;;
49972;SDS011;65693;49.798;10.968;2023-01-05T13:40:16;4.60;;;1.17;;
49972;SDS011;65693;49.798;10.968;2023-01-05T13:43:00;2.83;;;1.30;;
49972;SDS011;65693;49.798;10.968;2023-01-05T13:48:43;3.88;;;1.20;;
49972;SDS011;65693;49.798;10.968;2023-01-05T13:51:25;3.63;;;1.27;;
49972;SDS011;65693;49.798;10.968;2023-01-05T13:54:03;3.53;;;1.33;;
49972;SDS011;65693;49.798;10.968;2023-01-05T13:56:35;3.85;;;1.42;;
49972;SDS011;65693;49.798;10.968;2023-01-05T13:59:06;3.80;;;1.25;;
49972;SDS011;65693;49.798;10.968;2023-01-05T14:01:42;4.13;;;1.13;;
49972;SDS011;65693;49.798;10.968;2023-01-05T14:04:14;3.00;;;1.20;;
49972;SDS011;65693;49.798;10.968;2023-01-05T14:06:45;3.72;;;1.17;;
49972;SDS011;65693;49.798;10.968;2023-01-05T14:09:16;3.60;;;1.50;;
49972;SDS011;65693;49.798;10.968;2023-01-05T14:14:58;5.35;;;1.20;;
49972;SDS011;65693;49.798;10.968;2023-01-05T14:20:33;2.65;;;1.02;;
49972;SDS011;65693;49.798;10.968;2023-01-05T14:23:02;3.05;;;1.10;;
49972;SDS011;65693;49.798;10.968;2023-01-05T14:25:51;4.63;;;1.60;;
49972;SDS011;65693;49.798;10.968;2023-01-05T14:28:22;3.08;;;1.15;;
49972;SDS011;65693;49.798;10.968;2023-01-05T14:34:00;3.10;;;1.20;;
49972;SDS011;65693;49.798;10.968;2023-01-05T14:36:32;4.28;;;1.60;;
49972;SDS011;65693;49.798;10.968;2023-01-05T14:39:01;4.20;;;1.58;;
49972;SDS011;65693;49.798;10.968;2023-01-05T14:41:32;3.45;;;1.48;;
49972;SDS011;65693;49.798;10.968;2023-01-05T14:44:00;1.92;;;1.13;;
49972;SDS011;65693;49.798;10.968;2023-01-05T14:46:41;2.85;;;1.10;;
49972;SDS011;65693;49.798;10.968;2023-01-05T14:49:16;3.80;;;1.38;;
49972;SDS011;65693;49.798;10.968;2023-01-05T14:51:50;4.20;;;1.02;;
49972;SDS011;65693;49.798;10.968;2023-01-05T14:54:33;6.28;;;1.65;;
49972;SDS011;65693;49.798;10.968;2023-01-05T14:57:26;5.53;;;1.67;;
49972;SDS011;65693;49.798;10.968;2023-01-05T15:00:03;3.65;;;1.15;;
49972;SDS011;65693;49.798;10.968;2023-01-05T15:02:41;4.50;;;1.30;;
49972;SDS011;65693;49.798;10.968;2023-01-05T15:05:18;3.38;;;1.35;;
49972;SDS011;65693;49.798;10.968;2023-01-05T15:07:47;3.50;;;1.13;;
49972;SDS011;65693;49.798;10.968;2023-01-05T15:10:29;4.13;;;1.80;;
49972;SDS011;65693;49.798;10.968;2023-01-05T15:13:16;4.40;;;1.30;;
49972;SDS011;65693;49.798;10.968;2023-01-05T15:16:01;2.97;;;1.20;;
49972;SDS011;65693;49.798;10.968;2023-01-05T15:18:45;3.67;;;1.20;;
49972;SDS011;65693;49.798;10.968;2023-01-05T15:21:33;3.42;;;1.30;;
49972;SDS011;65693;49.798;10.968;2023-01-05T15:27:34;4.90;;;1.15;;
49972;SDS011;65693;49.798;10.968;2023-01-05T15:30:19;7.30;;;1.50;;